Terminal Aerodrome Forecast
Issued by NWS Amarillo, TX

Home | Current Version | Previous Version | Text Only | Print | Product List | Glossary On
Versions: 1 2 3 4 5 6 7 8 9 10 11 12
000
FTUS44 KAMA 120500
TAFGUY
TAF
KGUY 120520Z 1206/1306 18011KT P6SM SKC
     FM121500 20016G26KT P6SM SCT060
     FM130100 18010KT P6SM SKC=

USA.gov is the U.S. government's official web portal to all federal, state and local government web resources and services.